aviador You're here:

EICK Decoded Metar

CORK in IRELAND
Report Time2018-07-22 02:30:00
UTC Time2018-07-22 03:00:56
Flight Rules lifr LIFR
Wind330° at 09 kt
W.Decomp.*RWY 35: 8.7 kt HW 2.3 kt LCW
RWY 25: 0.8 kt HW 9.0 kt RCW
W.Rank330° ranks 11
Current wind is below 330° avg. (10.5)
Visibility9999 m
Phenomena:N/A
Clouds:Broken 004 Hf
Expected CloudBase > 400 ft AGL from Temp-Dew spread
Ceiling400 ft
Temp16°C (ISA +2)
Dew Point15°C (94% RH)
AAT14.4°C
QNH1017 hPa
Density Alt830 ft
Elevation502 ft
Report Wrong Elevation
Raw Report
METAR EICK 220230Z 33009KT 9999 BKN004 16/15 Q1017 NOSIG=

Extra information for EICK:More info

Metar Taf Metar & Taf Last 4 Metars F.Rules Stats Wind Profile Meteogram Temp Stats Airport Information Weather charts Add Link Nearby VenuesMetar ALERT Operation Metar Decoded Social comments